MDLR/LRM METAR and TAF weather

Enter ICAO airport designator
Station Type Date Time Source
MDLR METAR 2019/05/21 20:00 UTC NOAA

MDLR 212000Z 18017KT 9999 SCT022 BKN300 30/25 Q1011


Station Type Date Time Source
MDLR Decoded METAR 2019/05/21 20:00 UTC NOAA

La Romana International Airport, Dominican Republic (MDLR) 18-25N 068-57W
May 21, 2019 - 04:00 PM EDT / 2019.05.21 2000 UTC
Wind: from the S (180 degrees) at 20 MPH (17 KT):0
Visibility: greater than 7 mile(s):0
Sky conditions: mostly cloudy
Temperature: 86 F (30 C)
Heat index: 96.8 F (36.0 C):1
Dew Point: 77 F (25 C)
Relative Humidity: 74%
Pressure (altimeter): 29.85 in. Hg (1011 hPa)
ob: MDLR 212000Z 18017KT 9999 SCT022 BKN300 30/25 Q1011
cycle: 20

Station Type Date Time Source
MDLR TAF 2019/05/21 18:41 UTC NOAA

TAF MDLR 211600Z 2118/2218 19012KT 9999 SCT020 PROB30 2119/2201 7000-RA FEW016CB BKN018 BKN070

Example: see airport list